Time;durP1;ratioP1;P1;durP2;ratioP2;P2;SDS_P1;SDS_P2;PMS_P1;PMS_P2;Temp;Humidity;BMP_temperature;BMP_pressure;BME280_temperature;BME280_humidity;BME280_pressure;Samples;Min_cycle;Max_cycle;Signal;HPM_P1;HPM_P2
2024/03/14 00:00:22;;;;;;;12.55;8.60;;;;;;;10.98;100.00;100435.50;5092519;27;20067;-68
2024/03/14 00:02:52;;;;;;;12.25;8.40;;;;;;;10.95;100.00;100429.47;5094583;27;22280;-70
2024/03/14 00:05:21;;;;;;;12.18;8.43;;;;;;;10.85;100.00;100413.16;5084269;27;20039;-71
2024/03/14 00:07:48;;;;;;;12.98;7.88;;;;;;;10.91;100.00;100423.47;5103410;27;20092;-70
2024/03/14 00:10:17;;;;;;;13.13;7.82;;;;;;;10.94;100.00;100433.91;5097907;27;20059;-70
2024/03/14 00:12:46;;;;;;;12.10;8.13;;;;;;;10.92;100.00;100430.47;5119146;27;20039;-70
2024/03/14 00:15:15;;;;;;;11.95;8.50;;;;;;;10.83;100.00;100418.53;5085180;27;20740;-69
2024/03/14 00:17:45;;;;;;;11.40;8.57;;;;;;;10.59;100.00;100374.66;5079433;27;20035;-69
2024/03/14 00:20:13;;;;;;;12.73;8.30;;;;;;;10.92;100.00;100425.19;5095399;27;20047;-71
2024/03/14 00:22:41;;;;;;;16.35;8.10;;;;;;;10.93;100.00;100426.03;5099758;27;20129;-70
2024/03/14 00:25:10;;;;;;;11.48;8.07;;;;;;;10.91;100.00;100428.75;5098630;27;20051;-70
2024/03/14 00:27:38;;;;;;;11.98;8.15;;;;;;;10.92;100.00;100426.97;5105926;27;20058;-71
2024/03/14 00:30:11;;;;;;;13.95;9.10;;;;;;;10.92;100.00;100433.13;5098867;27;20051;-70
2024/03/14 00:32:39;;;;;;;12.93;8.13;;;;;;;10.74;100.00;100411.00;5107981;27;20130;-71
2024/03/14 00:35:08;;;;;;;10.77;8.02;;;;;;;10.85;100.00;100431.72;5103623;27;20044;-72
2024/03/14 00:37:36;;;;;;;14.13;8.52;;;;;;;10.83;100.00;100426.50;5084535;27;20055;-70
2024/03/14 00:40:08;;;;;;;14.15;8.27;;;;;;;10.52;100.00;100375.91;5078896;27;20052;-70
2024/03/14 00:42:37;;;;;;;12.05;8.25;;;;;;;10.78;100.00;100428.47;5101705;27;20047;-70
2024/03/14 00:45:06;;;;;;;13.50;8.88;;;;;;;10.74;100.00;100426.03;5095092;27;20055;-71
2024/03/14 00:47:35;;;;;;;10.80;7.70;;;;;;;10.73;100.00;100426.97;5103682;27;20047;-70
2024/03/14 00:50:08;;;;;;;15.90;8.48;;;;;;;10.71;100.00;100432.34;5084343;27;20051;-71
2024/03/14 00:52:38;;;;;;;14.82;8.57;;;;;;;10.67;100.00;100427.28;5086673;27;20055;-71
2024/03/14 00:55:09;;;;;;;10.68;7.75;;;;;;;10.68;100.00;100421.91;5086210;27;20109;-70
2024/03/14 00:57:38;;;;;;;13.15;8.45;;;;;;;10.53;100.00;100404.97;5099981;27;20062;-72
2024/03/14 01:00:11;;;;;;;13.15;9.07;;;;;;;10.63;100.00;100431.00;5099006;27;20051;-71
2024/03/14 01:02:41;;;;;;;12.35;8.38;;;;;;;10.48;100.00;100403.44;5095810;27;21060;-72
2024/03/14 01:05:11;;;;;;;11.75;7.93;;;;;;;10.58;100.00;100419.75;5084672;27;21820;-69
2024/03/14 01:07:40;;;;;;;10.93;8.52;;;;;;;10.40;100.00;100389.69;5101705;27;20127;-71
2024/03/14 01:10:10;;;;;;;13.40;7.68;;;;;;;10.56;100.00;100414.53;5080008;27;20055;-70
2024/03/14 01:12:38;;;;;;;12.17;8.57;;;;;;;10.54;100.00;100413.75;5096741;27;20043;-70
2024/03/14 01:15:07;;;;;;;14.63;8.57;;;;;;;10.53;100.00;100417.34;5099001;27;20043;-70
2024/03/14 01:17:35;;;;;;;10.40;8.55;;;;;;;10.48;100.00;100419.31;5102905;27;20138;-72
2024/03/14 01:20:09;;;;;;;14.02;8.82;;;;;;;10.45;100.00;100420.31;5098145;27;20046;-70
2024/03/14 01:22:40;;;;;;;15.15;8.90;;;;;;;10.36;100.00;100404.00;5080577;27;20043;-71
2024/03/14 01:25:09;;;;;;;13.32;8.68;;;;;;;10.40;100.00;100411.72;5100311;27;20054;-69
2024/03/14 01:27:37;;;;;;;13.10;8.63;;;;;;;10.36;100.00;100404.88;5100846;27;20046;-70
2024/03/14 01:30:12;;;;;;;15.30;8.57;;;;;;;10.38;100.00;100408.31;5085079;27;20055;-70
2024/03/14 01:32:40;;;;;;;13.57;8.48;;;;;;;10.37;100.00;100405.72;5095687;27;20619;-70
2024/03/14 01:35:08;;;;;;;13.95;8.35;;;;;;;10.35;100.00;100405.81;5070257;27;20096;-70
2024/03/14 01:37:36;;;;;;;12.13;8.15;;;;;;;10.31;100.00;100401.56;5086442;27;20054;-70
2024/03/14 01:40:06;;;;;;;12.48;8.73;;;;;;;10.30;100.00;100393.69;5099639;27;20043;-71
2024/03/14 01:42:34;;;;;;;11.60;8.40;;;;;;;10.29;100.00;100402.56;5090840;27;21458;-70
2024/03/14 01:45:04;;;;;;;13.40;9.02;;;;;;;10.06;100.00;100362.13;5095305;27;20424;-71
2024/03/14 01:47:33;;;;;;;13.32;9.15;;;;;;;10.11;100.00;100375.97;5101598;27;20051;-70
2024/03/14 01:50:05;;;;;;;11.45;8.65;;;;;;;9.76;100.00;100321.13;5099756;27;20043;-70
2024/03/14 01:52:35;;;;;;;9.95;8.05;;;;;;;10.01;100.00;100366.75;5080634;27;20059;-69
2024/03/14 01:55:03;;;;;;;12.75;8.60;;;;;;;10.07;100.00;100377.03;5099154;27;20751;-69
2024/03/14 01:57:31;;;;;;;11.55;8.45;;;;;;;10.09;100.00;100384.91;5098659;27;20120;-69
2024/03/14 02:00:00;;;;;;;9.73;7.82;;;;;;;10.04;100.00;100381.63;5100022;27;20555;-72
2024/03/14 02:02:38;;;;;;;12.55;8.27;;;;;;;10.02;100.00;100384.34;5098986;27;20035;-72
2024/03/14 02:05:10;;;;;;;13.80;8.75;;;;;;;10.01;100.00;100392.34;5099362;27;20502;-71
2024/03/14 02:07:38;;;;;;;12.38;8.35;;;;;;;9.98;100.00;100392.47;5099993;27;20039;-70
2024/03/14 02:10:08;;;;;;;12.57;8.23;;;;;;;9.89;100.00;100369.94;5099034;27;20135;-71
2024/03/14 02:12:36;;;;;;;12.23;8.57;;;;;;;9.92;100.00;100388.28;5080480;27;20421;-70
2024/03/14 02:15:04;;;;;;;12.40;8.30;;;;;;;9.76;100.00;100352.88;5066582;27;20946;-70
2024/03/14 02:17:32;;;;;;;13.00;9.00;;;;;;;9.85;100.00;100376.28;5099869;27;20059;-70
2024/03/14 02:20:00;;;;;;;17.50;9.05;;;;;;;9.80;100.00;100372.97;5098226;27;20785;-70
2024/03/14 02:22:28;;;;;;;13.80;7.93;;;;;;;9.67;100.00;100353.28;5094338;27;20042;-70
2024/03/14 02:24:56;;;;;;;14.10;8.25;;;;;;;9.77;100.00;100371.31;5101053;27;20163;-69
2024/03/14 02:27:25;;;;;;;11.32;8.30;;;;;;;9.74;100.00;100366.19;5096988;27;20074;-71
2024/03/14 02:29:53;;;;;;;12.60;8.95;;;;;;;9.81;100.00;100367.63;5086118;27;20130;-70
2024/03/14 02:32:21;;;;;;;15.68;9.13;;;;;;;9.81;100.00;100366.75;5108213;27;20046;-70
2024/03/14 02:34:49;;;;;;;17.27;8.98;;;;;;;9.40;100.00;100292.78;5080826;27;20036;-71
2024/03/14 02:37:16;;;;;;;15.70;9.45;;;;;;;9.75;100.00;100345.91;5100493;27;20039;-71
2024/03/14 02:39:45;;;;;;;13.73;7.95;;;;;;;9.79;100.00;100360.69;5075988;27;20045;-70
2024/03/14 02:42:14;;;;;;;13.63;8.77;;;;;;;9.69;100.00;100343.50;5090875;27;20146;-70
2024/03/14 02:44:43;;;;;;;11.60;8.25;;;;;;;9.70;100.00;100343.44;5095504;27;20047;-72
2024/03/14 02:47:12;;;;;;;14.73;8.55;;;;;;;9.40;100.00;100295.44;5099804;27;20469;-71
2024/03/14 02:49:40;;;;;;;13.65;8.38;;;;;;;9.69;100.00;100349.66;5083739;27;20047;-71
2024/03/14 02:52:08;;;;;;;14.18;9.13;;;;;;;9.61;100.00;100342.97;5079199;27;20088;-70
2024/03/14 02:54:36;;;;;;;17.52;10.27;;;;;;;9.59;100.00;100348.34;5096991;27;20042;-70
2024/03/14 02:57:04;;;;;;;14.23;9.40;;;;;;;9.58;100.00;100353.72;5097644;28;20397;-70
2024/03/14 02:59:32;;;;;;;13.55;8.55;;;;;;;9.39;100.00;100320.13;5096244;27;20043;-72
2024/03/14 03:02:01;;;;;;;14.10;9.07;;;;;;;9.56;100.00;100342.34;5072470;27;20754;-70
2024/03/14 03:04:30;;;;;;;15.63;9.10;;;;;;;9.34;100.00;100313.31;5081179;28;20047;-71
2024/03/14 03:07:05;;;;;;;16.23;10.27;;;;;;;9.52;100.00;100346.88;5082297;27;20142;-72
2024/03/14 03:09:35;;;;;;;15.68;9.68;;;;;;;9.50;100.00;100349.59;5100199;28;20134;-71
2024/03/14 03:12:04;;;;;;;16.67;10.20;;;;;;;9.50;100.00;100357.53;5090482;27;20525;-72
2024/03/14 03:14:32;;;;;;;16.13;9.98;;;;;;;9.48;100.00;100347.94;5074834;27;20048;-69
2024/03/14 03:17:00;;;;;;;16.45;9.32;;;;;;;9.38;100.00;100341.34;5098205;27;20044;-70
2024/03/14 03:19:28;;;;;;;16.23;10.57;;;;;;;9.43;100.00;100352.59;5082380;28;20405;-70
2024/03/14 03:21:58;;;;;;;15.18;10.25;;;;;;;9.40;100.00;100363.28;5075464;27;20832;-70
2024/03/14 03:24:26;;;;;;;16.45;10.35;;;;;;;9.37;100.00;100355.47;5082672;28;20039;-70
2024/03/14 03:26:54;;;;;;;16.63;9.77;;;;;;;9.33;100.00;100362.66;5108124;27;20051;-70
2024/03/14 03:29:21;;;;;;;15.27;10.70;;;;;;;9.32;100.00;100365.38;5081735;27;20053;-70
2024/03/14 03:31:50;;;;;;;17.23;9.93;;;;;;;9.23;100.00;100350.78;5108059;27;20522;-70
2024/03/14 03:34:23;;;;;;;15.77;10.77;;;;;;;8.05;100.00;100151.50;5100984;27;20039;-70
2024/03/14 03:36:51;;;;;;;13.98;9.60;;;;;;;9.18;100.00;100342.19;5103950;27;20693;-69
2024/03/14 03:39:20;;;;;;;16.25;10.13;;;;;;;9.05;100.00;100327.78;5103633;27;20051;-70
2024/03/14 03:41:48;;;;;;;13.63;9.65;;;;;;;9.21;100.00;100357.91;5098162;27;20043;-70
2024/03/14 03:44:15;;;;;;;17.35;10.80;;;;;;;9.05;100.00;100335.69;5107791;27;20050;-70
2024/03/14 03:46:44;;;;;;;18.73;10.68;;;;;;;9.19;100.00;100359.75;5106054;27;20504;-70
2024/03/14 03:49:11;;;;;;;18.35;10.55;;;;;;;9.12;100.00;100348.59;5084276;27;20096;-71
2024/03/14 03:51:39;;;;;;;16.92;10.40;;;;;;;9.09;100.00;100339.94;5081307;27;20031;-71
2024/03/14 03:54:06;;;;;;;16.10;10.20;;;;;;;9.21;100.00;100347.34;5097485;27;20116;-71
2024/03/14 03:56:35;;;;;;;15.88;10.55;;;;;;;9.14;100.00;100330.00;5100642;27;20084;-70
2024/03/14 03:59:02;;;;;;;16.73;10.07;;;;;;;9.20;100.00;100345.63;5088040;27;20395;-71
2024/03/14 04:01:33;;;;;;;19.67;11.13;;;;;;;8.75;100.00;100272.66;5080659;27;20051;-69
2024/03/14 04:04:00;;;;;;;;;;;;;;;9.18;100.00;100352.75;5084954;27;20051;-69
2024/03/14 04:06:33;;;;;;;15.10;9.98;;;;;;;9.18;100.00;100346.59;5087074;27;19923;-70
2024/03/14 04:09:01;;;;;;;20.10;10.35;;;;;;;9.17;100.00;100340.47;5101772;27;20064;-70
2024/03/14 04:11:29;;;;;;;18.73;10.73;;;;;;;9.20;100.00;100340.34;5065907;27;20138;-71
2024/03/14 04:13:57;;;;;;;17.17;10.27;;;;;;;9.21;100.00;100338.56;5099004;27;20048;-72
2024/03/14 04:16:27;;;;;;;17.58;10.27;;;;;;;9.22;100.00;100333.22;5103035;27;20047;-70
2024/03/14 04:18:56;;;;;;;15.85;10.13;;;;;;;9.09;100.00;100316.16;5101912;27;20116;-71
2024/03/14 04:21:26;;;;;;;18.10;10.15;;;;;;;9.20;100.00;100342.97;5083277;27;20046;-70
2024/03/14 04:23:56;;;;;;;17.45;11.05;;;;;;;9.15;100.00;100337.03;5083796;27;20092;-70
2024/03/14 04:26:24;;;;;;;15.95;10.48;;;;;;;9.12;100.00;100335.38;5098448;27;20047;-71
2024/03/14 04:28:52;;;;;;;16.02;9.75;;;;;;;8.96;100.00;100309.69;5101625;27;20043;-70
2024/03/14 04:31:20;;;;;;;16.92;10.32;;;;;;;9.03;100.00;100314.63;5080927;27;20039;-71
2024/03/14 04:33:49;;;;;;;16.02;11.02;;;;;;;9.09;100.00;100324.94;5095304;27;20189;-70
2024/03/14 04:36:18;;;;;;;18.33;11.13;;;;;;;8.81;100.00;100290.06;5099418;27;20043;-71
2024/03/14 04:38:48;;;;;;;18.27;11.20;;;;;;;9.00;100.00;100316.53;5080942;27;20043;-70
2024/03/14 04:41:16;;;;;;;16.90;11.02;;;;;;;9.02;100.00;100334.03;5097617;27;20088;-70
2024/03/14 04:43:47;;;;;;;17.45;10.82;;;;;;;9.01;100.00;100334.09;5076241;27;20046;-70
2024/03/14 04:46:17;;;;;;;17.30;11.82;;;;;;;9.00;100.00;100335.00;5083209;27;20043;-70
2024/03/14 04:48:46;;;;;;;19.67;12.05;;;;;;;9.00;100.00;100337.66;5100500;27;20073;-70
2024/03/14 04:51:14;;;;;;;19.20;11.40;;;;;;;8.63;100.00;100278.47;5100165;27;20581;-70
2024/03/14 04:53:42;;;;;;;15.63;11.77;;;;;;;8.98;100.00;100343.00;5078494;27;20048;-70
2024/03/14 04:56:10;;;;;;;15.93;11.75;;;;;;;8.97;100.00;100337.81;5100218;27;20043;-71
2024/03/14 04:58:38;;;;;;;21.77;12.27;;;;;;;8.90;100.00;100323.13;5096576;27;20084;-70
2024/03/14 05:01:06;;;;;;;21.23;12.02;;;;;;;8.84;100.00;100316.31;5115073;27;20075;-70
2024/03/14 05:03:36;;;;;;;19.80;11.63;;;;;;;8.65;100.00;100300.38;5096911;27;20118;-70
2024/03/14 05:06:04;;;;;;;20.92;12.32;;;;;;;8.72;100.00;100311.53;5087236;27;20054;-71
2024/03/14 05:08:33;;;;;;;18.38;11.48;;;;;;;8.87;100.00;100339.09;5099896;27;20141;-73
2024/03/14 05:11:01;;;;;;;18.35;11.63;;;;;;;8.85;100.00;100341.78;5100827;27;20047;-70
2024/03/14 05:13:29;;;;;;;19.48;11.90;;;;;;;8.84;100.00;100341.84;5095272;27;20530;-71
2024/03/14 05:15:57;;;;;;;20.70;12.07;;;;;;;8.73;100.00;100331.72;5101318;27;20122;-71
2024/03/14 05:18:25;;;;;;;18.65;12.02;;;;;;;8.78;100.00;100346.47;5098671;27;20103;-71
2024/03/14 05:20:54;;;;;;;17.95;12.05;;;;;;;8.75;100.00;100341.31;5084331;27;20048;-70
2024/03/14 05:23:23;;;;;;;19.40;13.23;;;;;;;8.35;100.00;100276.06;5075790;27;20182;-70
2024/03/14 05:25:54;;;;;;;23.30;11.85;;;;;;;8.69;100.00;100325.72;5093591;27;20464;-70
2024/03/14 05:28:22;;;;;;;19.65;12.05;;;;;;;8.74;100.00;100344.88;5084108;27;20067;-70
2024/03/14 05:30:52;;;;;;;21.50;13.30;;;;;;;8.73;100.00;100342.28;5102683;27;20095;-70
2024/03/14 05:33:20;;;;;;;20.73;13.10;;;;;;;8.72;100.00;100330.88;5095799;27;20145;-70
2024/03/14 05:35:49;;;;;;;20.10;12.20;;;;;;;8.71;100.00;100331.78;5083094;27;20044;-71
2024/03/14 05:38:18;;;;;;;19.92;12.85;;;;;;;8.71;100.00;100330.94;5086691;27;20043;-70
2024/03/14 05:40:46;;;;;;;19.50;12.30;;;;;;;8.49;100.00;100299.28;5101651;27;20134;-70
2024/03/14 05:43:14;;;;;;;18.15;12.57;;;;;;;8.62;100.00;100323.41;5076312;27;20113;-70
2024/03/14 05:45:42;;;;;;;19.60;12.90;;;;;;;8.52;100.00;100304.41;5099158;27;20039;-71
2024/03/14 05:48:11;;;;;;;19.00;12.93;;;;;;;8.65;100.00;100334.69;5080993;27;20448;-71
2024/03/14 05:50:39;;;;;;;21.70;13.05;;;;;;;8.66;100.00;100338.16;5099274;27;20075;-70
2024/03/14 05:53:06;;;;;;;22.05;13.02;;;;;;;8.63;100.00;100333.91;5081878;27;20055;-71
2024/03/14 05:55:34;;;;;;;22.58;13.60;;;;;;;8.63;100.00;100336.53;5100202;27;20028;-70
2024/03/14 05:58:02;;;;;;;21.63;13.25;;;;;;;8.66;100.00;100333.75;5099480;27;20031;-70
2024/03/14 06:00:30;;;;;;;19.63;13.00;;;;;;;8.66;100.00;100336.38;5097397;27;20047;-70
2024/03/14 06:02:58;;;;;;;24.83;13.77;;;;;;;8.49;100.00;100306.34;5077476;27;20055;-70
2024/03/14 06:05:27;;;;;;;24.52;13.25;;;;;;;8.36;100.00;100285.69;5077596;27;20208;-70
2024/03/14 06:07:56;;;;;;;21.05;13.02;;;;;;;8.67;100.00;100330.19;5101808;27;20039;-71
2024/03/14 06:10:24;;;;;;;20.42;13.43;;;;;;;8.69;100.00;100333.63;5098983;27;20597;-70
2024/03/14 06:12:52;;;;;;;23.17;13.43;;;;;;;8.72;100.00;100337.94;5076496;27;20501;-70
2024/03/14 06:15:20;;;;;;;21.67;13.32;;;;;;;8.54;100.00;100294.66;5082473;27;20075;-71
2024/03/14 06:17:50;;;;;;;19.80;13.00;;;;;;;8.74;100.00;100325.53;5092647;27;20043;-70
2024/03/14 06:20:19;;;;;;;19.70;13.27;;;;;;;8.36;100.00;100254.03;5098646;27;20039;-70
2024/03/14 06:22:48;;;;;;;20.70;12.27;;;;;;;8.85;100.00;100331.22;5094415;27;20043;-71
2024/03/14 06:25:16;;;;;;;18.50;12.88;;;;;;;8.91;100.00;100333.63;5098170;27;20144;-70
2024/03/14 06:27:45;;;;;;;19.48;12.60;;;;;;;8.87;100.00;100321.47;5098855;27;20476;-69
2024/03/14 06:30:13;;;;;;;24.30;13.02;;;;;;;8.88;100.00;100317.91;5098285;27;20047;-69
2024/03/14 06:32:46;;;;;;;21.40;13.10;;;;;;;8.99;100.00;100326.22;5097356;27;20035;-70
2024/03/14 06:35:15;;;;;;;20.17;13.05;;;;;;;9.03;100.00;100326.97;5095348;27;20067;-71
2024/03/14 06:37:44;;;;;;;19.90;12.57;;;;;;;9.08;100.00;100332.94;5086734;27;20050;-71
2024/03/14 06:40:14;;;;;;;19.73;11.73;;;;;;;9.10;100.00;100329.31;5074220;27;20054;-69
2024/03/14 06:42:45;;;;;;;21.80;12.70;;;;;;;9.11;100.00;100325.75;5096048;27;20134;-71
2024/03/14 06:45:13;;;;;;;24.08;12.65;;;;;;;9.14;100.00;100336.16;5096602;27;20040;-70
2024/03/14 06:47:44;;;;;;;22.73;12.50;;;;;;;9.06;100.00;100314.50;5085292;27;20044;-70
2024/03/14 06:50:14;;;;;;;22.67;12.88;;;;;;;9.22;100.00;100337.63;5099450;27;20047;-71
2024/03/14 06:52:42;;;;;;;19.45;11.00;;;;;;;9.12;100.00;100318.69;5094410;27;20463;-71
2024/03/14 06:55:12;;;;;;;19.13;12.82;;;;;;;9.23;100.00;100320.84;5094911;28;20207;-70
2024/03/14 06:57:40;;;;;;;16.70;12.05;;;;;;;9.37;100.00;100321.97;5093058;27;20043;-70
2024/03/14 07:00:12;;;;;;;19.60;12.25;;;;;;;9.48;100.00;100334.72;5106954;27;20053;-71
2024/03/14 07:02:44;;;;;;;17.75;11.20;;;;;;;9.43;100.00;100316.44;5090412;27;20940;-71
2024/03/14 07:05:14;;;;;;;19.35;11.55;;;;;;;9.53;100.00;100332.75;5088653;28;20126;-71
2024/03/14 07:07:45;;;;;;;19.00;10.95;;;;;;;9.61;100.00;100345.63;5101271;28;20047;-69
2024/03/14 07:10:14;;;;;;;18.55;11.13;;;;;;;9.63;100.00;100349.06;5099106;28;20037;-70
2024/03/14 07:12:45;;;;;;;;;;;;;;;9.64;100.00;100345.50;5095557;27;20061;-69
2024/03/14 07:15:15;;;;;;;;;;;;;;;9.58;100.00;100348.41;5094648;27;19919;-71
2024/03/14 07:17:43;;;;;;;17.55;11.45;;;;;;;9.54;100.00;100357.41;5086285;27;19923;-70
2024/03/14 07:20:17;;;;;;;20.25;11.13;;;;;;;9.44;100.00;100344.56;5104957;27;20147;-72
2024/03/14 07:22:45;;;;;;;23.02;11.45;;;;;;;9.50;100.00;100354.03;5083884;27;20503;-71
2024/03/14 07:25:17;;;;;;;17.85;11.57;;;;;;;9.51;100.00;100355.75;5099644;27;20509;-70
2024/03/14 07:27:46;;;;;;;18.13;11.35;;;;;;;9.48;100.00;100346.16;5086027;27;21578;-70
2024/03/14 07:30:15;;;;;;;18.67;12.02;;;;;;;9.16;100.00;100283.25;5100313;27;20078;-71
2024/03/14 07:32:44;;;;;;;17.65;11.18;;;;;;;9.63;100.00;100355.19;5101693;27;20054;-70
2024/03/14 07:35:15;;;;;;;20.63;11.48;;;;;;;9.65;100.00;100347.22;5099838;27;20047;-72
2024/03/14 07:37:45;;;;;;;18.27;12.00;;;;;;;9.67;100.00;100348.88;5097234;27;20143;-70
2024/03/14 07:40:16;;;;;;;20.88;12.20;;;;;;;9.83;100.00;100354.34;5089553;27;20046;-73
2024/03/14 07:42:46;;;;;;;18.75;12.00;;;;;;;9.90;100.00;100353.16;5103242;27;20170;-70
2024/03/14 07:45:17;;;;;;;21.33;12.65;;;;;;;9.97;100.00;100354.56;5086036;27;20050;-71
2024/03/14 07:47:45;;;;;;;27.33;12.43;;;;;;;10.00;100.00;100348.28;5088357;27;20124;-70
2024/03/14 07:50:13;;;;;;;21.48;12.43;;;;;;;10.12;100.00;100359.16;5100039;27;20047;-72
2024/03/14 07:52:41;;;;;;;19.67;11.85;;;;;;;10.25;100.00;100353.34;5102455;27;20035;-71
2024/03/14 07:55:09;;;;;;;20.20;11.63;;;;;;;10.22;100.00;100337.63;5078897;27;20051;-71
2024/03/14 07:57:37;;;;;;;17.10;11.77;;;;;;;10.43;100.00;100349.84;5102280;27;20092;-71
2024/03/14 08:00:08;;;;;;;17.73;12.85;;;;;;;10.58;100.00;100357.06;5082838;27;20054;-73
2024/03/14 08:02:39;;;;;;;19.70;12.05;;;;;;;10.79;100.00;100360.47;5094393;27;20046;-72
2024/03/14 08:05:07;;;;;;;18.38;12.38;;;;;;;10.88;100.00;100358.22;5107853;27;20184;-70
2024/03/14 08:07:37;;;;;;;17.15;12.13;;;;;;;11.02;100.00;100367.31;5086786;27;20051;-70
2024/03/14 08:10:06;;;;;;;20.63;11.60;;;;;;;11.13;100.00;100362.34;5094356;27;20295;-72
2024/03/14 08:12:33;;;;;;;24.48;11.57;;;;;;;11.25;100.00;100361.72;5101884;27;20074;-72
2024/03/14 08:15:11;;;;;;;17.70;11.30;;;;;;;11.50;100.00;100351.56;5097436;27;20051;-72
2024/03/14 08:17:40;;;;;;;17.45;10.70;;;;;;;11.48;100.00;100350.81;5081692;27;20474;-72
2024/03/14 08:20:09;;;;;;;20.65;11.00;;;;;;;11.57;100.00;100350.31;5111669;27;20868;-72
2024/03/14 08:22:37;;;;;;;15.70;10.57;;;;;;;11.61;100.00;100348.38;5071733;27;20035;-72
2024/03/14 08:25:15;;;;;;;13.40;10.25;;;;;;;11.40;100.00;100329.13;5094193;27;20408;-72
2024/03/14 08:27:44;;;;;;;15.20;10.07;;;;;;;11.48;100.00;100332.25;5087081;27;20665;-72
2024/03/14 08:30:13;;;;;;;14.15;9.40;;;;;;;11.35;100.00;100309.06;5102085;27;20044;-72
2024/03/14 08:32:43;;;;;;;14.45;9.05;;;;;;;11.25;100.00;100284.84;5087855;27;20043;-71
2024/03/14 08:35:14;;;;;;;15.25;9.45;;;;;;;11.71;100.00;100335.47;5095498;27;20035;-71
2024/03/14 08:37:43;;;;;;;17.02;10.05;;;;;;;11.55;100.00;100275.28;5101291;27;20050;-72
2024/03/14 08:40:11;;;;;;;15.00;9.25;;;;;;;11.93;100.00;100344.94;5098299;27;20171;-72
2024/03/14 08:42:41;;;;;;;14.48;10.93;;;;;;;11.84;100.00;100345.41;5082865;27;20158;-71
2024/03/14 08:45:19;;;;;;;13.57;9.80;;;;;;;11.72;100.00;100345.16;5093701;27;20047;-71
2024/03/14 08:47:47;;;;;;;19.05;10.75;;;;;;;11.59;100.00;100337.00;5091096;27;20414;-70
2024/03/14 08:50:20;;;;;;;21.02;10.88;;;;;;;11.30;100.00;100292.56;5099627;27;20173;-71
2024/03/14 08:52:55;;;;;;;19.83;11.30;;;;;;;11.62;100.00;100338.63;5085832;27;20046;-71
2024/03/14 08:55:29;;;;;;;21.85;11.70;;;;;;;11.70;100.00;100347.88;5098355;27;20899;-71
2024/03/14 08:58:02;;;;;;;14.82;10.80;;;;;;;11.67;100.00;100334.78;5100903;27;20031;-72
2024/03/14 09:00:31;;;;;;;16.17;10.27;;;;;;;11.65;100.00;100346.44;5103156;27;20046;-71
2024/03/14 09:03:03;;;;;;;16.80;11.77;;;;;;;11.49;100.00;100322.50;5084220;27;20051;-71
2024/03/14 09:05:32;;;;;;;17.65;10.75;;;;;;;11.78;100.00;100343.09;5076046;27;20071;-71
2024/03/14 09:08:00;;;;;;;18.25;11.52;;;;;;;11.88;100.00;100354.06;5083427;27;20043;-71
2024/03/14 09:10:33;;;;;;;15.70;11.38;;;;;;;11.85;100.00;100351.56;5100896;27;20205;-71
2024/03/14 09:13:01;;;;;;;20.75;11.45;;;;;;;11.89;100.00;100353.13;5100400;27;20056;-72
2024/03/14 09:15:30;;;;;;;15.60;10.23;;;;;;;12.00;100.00;100345.44;5078399;27;20122;-71
2024/03/14 09:18:00;;;;;;;16.30;11.50;;;;;;;12.11;100.00;100351.06;5083604;27;20048;-71
2024/03/14 09:20:29;;;;;;;17.90;11.07;;;;;;;12.10;100.00;100359.09;5102319;27;20043;-71
2024/03/14 09:22:56;;;;;;;17.77;11.45;;;;;;;12.09;100.00;100354.72;5101729;27;20107;-71
2024/03/14 09:25:26;;;;;;;19.02;11.80;;;;;;;12.13;100.00;100343.84;5094667;27;20035;-71
2024/03/14 09:27:54;;;;;;;18.75;10.98;;;;;;;12.37;100.00;100348.75;5083566;27;20457;-72
2024/03/14 09:30:22;;;;;;;16.67;11.40;;;;;;;12.58;100.00;100348.44;5097247;27;20042;-70
2024/03/14 09:32:53;;;;;;;13.23;10.25;;;;;;;12.48;100.00;100304.72;5101918;27;20160;-72
2024/03/14 09:35:26;;;;;;;14.88;11.85;;;;;;;12.85;100.00;100351.34;5094084;27;20848;-71
2024/03/14 09:37:56;;;;;;;17.13;11.57;;;;;;;12.81;100.00;100341.81;5088900;27;20043;-71
2024/03/14 09:40:24;;;;;;;20.58;11.52;;;;;;;12.84;100.00;100346.97;5086003;27;20145;-71
2024/03/14 09:42:56;;;;;;;19.90;12.30;;;;;;;12.94;100.00;100345.47;5084877;27;20075;-72
2024/03/14 09:45:25;;;;;;;14.88;11.60;;;;;;;12.91;100.00;100313.75;5095032;27;20113;-70
2024/03/14 09:47:55;;;;;;;18.33;11.15;;;;;;;13.16;100.00;100339.81;5102516;27;20045;-71
2024/03/14 09:50:26;;;;;;;18.38;11.20;;;;;;;13.25;100.00;100347.25;5102700;27;20158;-70
2024/03/14 09:52:55;;;;;;;18.23;11.93;;;;;;;13.18;100.00;100298.03;5101919;27;20051;-71
2024/03/14 09:55:28;;;;;;;15.63;10.65;;;;;;;13.48;100.00;100321.09;5093648;27;20804;-71
2024/03/14 09:57:56;;;;;;;17.67;11.27;;;;;;;13.54;100.00;100326.88;5100030;27;20554;-70
2024/03/14 10:00:25;;;;;;;13.10;8.95;;;;;;;13.74;100.00;100338.13;5081992;27;20048;-71
2024/03/14 10:02:55;;;;;;;15.82;8.88;;;;;;;13.86;100.00;100335.56;5102747;27;20536;-71
2024/03/14 10:05:24;;;;;;;14.63;8.90;;;;;;;14.09;100.00;100334.16;5097023;27;20126;-70
2024/03/14 10:07:52;;;;;;;15.68;9.40;;;;;;;14.42;100.00;100336.53;5097739;27;21065;-70
2024/03/14 10:10:21;;;;;;;16.33;8.90;;;;;;;14.31;100.00;100337.22;5082579;27;20055;-70
2024/03/14 10:12:51;;;;;;;15.05;8.70;;;;;;;14.08;100.00;100315.63;5100387;27;20031;-70
2024/03/14 10:15:20;;;;;;;11.77;8.60;;;;;;;14.26;100.00;100341.97;5090957;27;23186;-71
2024/03/14 10:17:48;;;;;;;13.48;8.85;;;;;;;14.35;100.00;100314.72;5078338;27;21061;-71
2024/03/14 10:20:17;;;;;;;13.15;9.15;;;;;;;14.47;100.00;100334.47;5096733;27;20047;-70
2024/03/14 10:22:48;;;;;;;15.38;9.80;;;;;;;14.44;100.00;100333.78;5084181;27;20050;-70
2024/03/14 10:25:17;;;;;;;12.02;8.60;;;;;;;14.39;100.00;100329.56;5089524;27;20142;-71
2024/03/14 10:27:48;;;;;;;16.42;8.35;;;;;;;14.55;100.00;100336.59;5099207;27;20130;-69
2024/03/14 10:30:33;;;;;;;13.40;8.77;;;;;;;14.72;100.00;100323.91;5102114;27;20043;-71
2024/03/14 10:33:02;;;;;;;16.02;9.00;;;;;;;15.03;100.00;100319.22;5084939;27;20099;-71
2024/03/14 10:35:34;;;;;;;12.95;7.70;;;;;;;15.19;100.00;100321.72;5096040;27;20104;-72
2024/03/14 10:38:02;;;;;;;14.93;9.13;;;;;;;15.27;100.00;100312.22;5086233;27;20043;-70
2024/03/14 10:40:30;;;;;;;11.52;7.70;;;;;;;15.31;100.00;100316.41;5103648;27;20046;-70
2024/03/14 10:42:58;;;;;;;15.85;8.73;;;;;;;15.37;100.00;100307.16;5095984;27;20057;-71
2024/03/14 10:45:29;;;;;;;12.38;8.20;;;;;;;15.40;100.00;100314.94;5091598;27;20138;-71
2024/03/14 10:47:57;;;;;;;11.15;8.32;;;;;;;15.35;100.00;100306.38;5099257;27;20043;-71
2024/03/14 10:50:26;;;;;;;15.35;8.15;;;;;;;15.25;100.00;100303.50;5100937;27;20059;-70
2024/03/14 10:52:56;;;;;;;10.93;7.50;;;;;;;15.27;100.00;100306.03;5099774;27;20078;-70
2024/03/14 10:55:25;;;;;;;12.50;7.82;;;;;;;15.27;100.00;100306.91;5094383;27;20046;-69
2024/03/14 10:57:57;;;;;;;12.13;7.82;;;;;;;15.16;100.00;100305.91;5105919;27;20047;-71
2024/03/14 11:00:25;;;;;;;9.00;7.35;;;;;;;15.10;100.00;100296.53;5095821;27;20130;-70
2024/03/14 11:02:55;;;;;;;14.95;8.23;;;;;;;15.10;100.00;100288.53;5099186;27;20076;-71
2024/03/14 11:05:26;;;;;;;11.98;7.97;;;;;;;14.92;100.00;100260.44;5091904;27;20044;-70
2024/03/14 11:07:54;;;;;;;13.30;7.75;;;;;;;15.03;100.00;100290.75;5096290;28;20472;-70
2024/03/14 11:10:24;;;;;;;13.13;8.38;;;;;;;14.93;100.00;100289.66;5083169;28;20878;-70
2024/03/14 11:12:52;;;;;;;13.68;8.00;;;;;;;14.87;100.00;100294.53;5100045;27;20043;-71
2024/03/14 11:15:24;;;;;;;12.35;8.38;;;;;;;14.77;100.00;100270.31;5091751;27;20047;-70
2024/03/14 11:17:54;;;;;;;12.27;8.05;;;;;;;14.93;100.00;100288.81;5099206;27;20063;-70